Wetterdaten: Samstag, 19.06.2010
Datum Zeit Temp. A. Feuchte A. Luftdruck Regen Wind Richtung Richtung Sonnenschein UV Solar Windben
19.06.2010 00:00 12,1 C 66 % 1009,2 hPa 0,0 mm 3,2 km/h (1 Bft) W-NW 292 0 min 0 UV-I 0 W/m 12,9 km/h (3 Bft)
19.06.2010 00:10 12,0 C 66 % 1009,1 hPa 0,0 mm 4,8 km/h (1 Bft) W-NW 292 0 min 0 UV-I 0 W/m 14,5 km/h (3 Bft)
19.06.2010 00:20 11,9 C 67 % 1009,1 hPa 0,0 mm 4,8 km/h (1 Bft) W-NW 292 0 min 0 UV-I 0 W/m 12,9 km/h (3 Bft)
19.06.2010 00:30 11,9 C 66 % 1008,5 hPa 0,0 mm 8,0 km/h (2 Bft) W-NW 292 0 min 0 UV-I 0 W/m 29,0 km/h (5 Bft)
19.06.2010 00:40 11,8 C 67 % 1008,4 hPa 0,0 mm 4,8 km/h (1 Bft) W-NW 292 0 min 0 UV-I 0 W/m 14,5 km/h (3 Bft)
19.06.2010 00:50 11,8 C 68 % 1008,8 hPa 0,0 mm 4,8 km/h (1 Bft) W-NW 292 0 min 0 UV-I 0 W/m 12,9 km/h (3 Bft)
19.06.2010 01:00 11,7 C 69 % 1008,8 hPa 0,0 mm 4,8 km/h (1 Bft) W-NW 292 0 min 0 UV-I 0 W/m 14,5 km/h (3 Bft)
19.06.2010 01:10 11,6 C 69 % 1008,7 hPa 0,0 mm 4,8 km/h (1 Bft) W 270 0 min 0 UV-I 0 W/m 16,1 km/h (3 Bft)
19.06.2010 01:20 11,5 C 70 % 1008,6 hPa 0,0 mm 4,8 km/h (1 Bft) W-NW 292 0 min 0 UV-I 0 W/m 14,5 km/h (3 Bft)
19.06.2010 01:30 11,4 C 70 % 1008,4 hPa 0,0 mm 3,2 km/h (1 Bft) W-NW 292 0 min 0 UV-I 0 W/m 11,3 km/h (2 Bft)
19.06.2010 01:40 11,4 C 70 % 1008,3 hPa 0,0 mm 1,6 km/h (1 Bft) NW 315 0 min 0 UV-I 0 W/m 11,3 km/h (2 Bft)
19.06.2010 01:50 11,4 C 70 % 1008,2 hPa 0,0 mm 3,2 km/h (1 Bft) W-NW 292 0 min 0 UV-I 0 W/m 11,3 km/h (2 Bft)
19.06.2010 02:00 11,3 C 70 % 1008,1 hPa 0,0 mm 3,2 km/h (1 Bft) W-NW 292 0 min 0 UV-I 0 W/m 11,3 km/h (2 Bft)
19.06.2010 02:10 11,3 C 71 % 1008,0 hPa 0,0 mm 3,2 km/h (1 Bft) W-NW 292 0 min 0 UV-I 0 W/m 9,7 km/h (2 Bft)
19.06.2010 02:20 11,3 C 71 % 1007,9 hPa 0,0 mm 3,2 km/h (1 Bft) W-NW 292 0 min 0 UV-I 0 W/m 8,0 km/h (2 Bft)
19.06.2010 02:30 11,3 C 72 % 1007,9 hPa 0,0 mm 3,2 km/h (1 Bft) W 270 0 min 0 UV-I 0 W/m 11,3 km/h (2 Bft)
19.06.2010 02:40 11,3 C 72 % 1007,7 hPa 0,0 mm 3,2 km/h (1 Bft) W 270 0 min 0 UV-I 0 W/m 14,5 km/h (3 Bft)
19.06.2010 02:50 11,2 C 72 % 1007,7 hPa 0,0 mm 3,2 km/h (1 Bft) NW 315 0 min 0 UV-I 0 W/m 9,7 km/h (2 Bft)
19.06.2010 03:00 11,2 C 71 % 1007,6 hPa 0,0 mm 4,8 km/h (1 Bft) W-NW 292 0 min 0 UV-I 0 W/m 12,9 km/h (3 Bft)
19.06.2010 03:10 11,1 C 72 % 1007,5 hPa 0,0 mm 4,8 km/h (1 Bft) W 270 0 min 0 UV-I 0 W/m 12,9 km/h (3 Bft)
19.06.2010 03:20 11,1 C 71 % 1007,3 hPa 0,0 mm 4,8 km/h (1 Bft) W-NW 292 0 min 0 UV-I 0 W/m 11,3 km/h (2 Bft)
19.06.2010 03:30 11,0 C 71 % 1007,4 hPa 0,0 mm 4,8 km/h (1 Bft) W 270 0 min 0 UV-I 0 W/m 12,9 km/h (3 Bft)
19.06.2010 03:40 10,9 C 73 % 1007,3 hPa 0,0 mm 3,2 km/h (1 Bft) W 270 0 min 0 UV-I 0 W/m 11,3 km/h (2 Bft)
19.06.2010 03:50 10,8 C 74 % 1007,2 hPa 0,0 mm 3,2 km/h (1 Bft) W 270 0 min 0 UV-I 0 W/m 12,9 km/h (3 Bft)
19.06.2010 04:00 10,8 C 75 % 1007,1 hPa 0,0 mm 4,8 km/h (1 Bft) W 270 0 min 0 UV-I 0 W/m 12,9 km/h (3 Bft)
19.06.2010 04:10 10,8 C 75 % 1007,1 hPa 0,0 mm 3,2 km/h (1 Bft) W 270 0 min 0 UV-I 0 W/m 11,3 km/h (2 Bft)
19.06.2010 04:20 10,7 C 75 % 1006,9 hPa 0,0 mm 3,2 km/h (1 Bft) W 270 0 min 0 UV-I 0 W/m 12,9 km/h (3 Bft)
19.06.2010 04:30 10,7 C 76 % 1006,9 hPa 0,0 mm 8,0 km/h (2 Bft) W 270 0 min 0 UV-I 0 W/m 17,7 km/h (3 Bft)
19.06.2010 04:40 10,4 C 78 % 1006,9 hPa 0,0 mm 4,8 km/h (1 Bft) W 270 0 min 0 UV-I 0 W/m 20,9 km/h (4 Bft)
19.06.2010 04:50 10,2 C 79 % 1006,9 hPa 0,0 mm 4,8 km/h (1 Bft) W 270 0 min 0 UV-I 0 W/m 17,7 km/h (3 Bft)
19.06.2010 05:00 10,2 C 79 % 1006,9 hPa 0,0 mm 3,2 km/h (1 Bft) W 270 0 min 0 UV-I 0 W/m 11,3 km/h (2 Bft)
19.06.2010 05:10 10,1 C 79 % 1006,8 hPa 0,0 mm 4,8 km/h (1 Bft) W 270 0 min 0 UV-I 0 W/m 12,9 km/h (3 Bft)
19.06.2010 05:20 10,1 C 79 % 1006,8 hPa 0,0 mm 1,6 km/h (1 Bft) W 270 0 min 0 UV-I 0 W/m 6,4 km/h (2 Bft)
19.06.2010 05:30 10,1 C 79 % 1006,7 hPa 0,0 mm 1,6 km/h (1 Bft) W 270 0 min 0 UV-I 5 W/m 8,0 km/h (2 Bft)
19.06.2010 05:40 10,1 C 78 % 1006,8 hPa 0,0 mm 3,2 km/h (1 Bft) W 270 0 min 0 UV-I 9 W/m 16,1 km/h (3 Bft)
19.06.2010 05:50 10,1 C 78 % 1006,8 hPa 0,0 mm 4,8 km/h (1 Bft) W 270 0 min 0 UV-I 12 W/m 12,9 km/h (3 Bft)
19.06.2010 06:00 10,1 C 77 % 1006,8 hPa 0,0 mm 6,4 km/h (2 Bft) W 270 0 min 0 UV-I 25 W/m 12,9 km/h (3 Bft)
19.06.2010 06:10 10,1 C 77 % 1006,8 hPa 0,0 mm 4,8 km/h (1 Bft) W 270 0 min 0 UV-I 30 W/m 14,5 km/h (3 Bft)
19.06.2010 06:20 10,1 C 77 % 1006,9 hPa 0,0 mm 4,8 km/h (1 Bft) W 270 0 min 0 UV-I 42 W/m 12,9 km/h (3 Bft)
19.06.2010 06:30 10,1 C 77 % 1006,8 hPa 0,0 mm 3,2 km/h (1 Bft) W 270 0 min 0 UV-I 44 W/m 11,3 km/h (2 Bft)
19.06.2010 06:40 10,2 C 76 % 1006,6 hPa 0,0 mm 4,8 km/h (1 Bft) W 270 0 min 0 UV-I 62 W/m 11,3 km/h (2 Bft)
19.06.2010 06:50 10,3 C 76 % 1006,6 hPa 0,0 mm 3,2 km/h (1 Bft) W-SW 247 10 min 1 UV-I 204 W/m 14,5 km/h (3 Bft)
19.06.2010 07:00 10,5 C 75 % 1006,4 hPa 0,0 mm 4,8 km/h (1 Bft) W 270 10 min 1 UV-I 251 W/m 12,9 km/h (3 Bft)
19.06.2010 07:10 10,7 C 74 % 1006,4 hPa 0,0 mm 4,8 km/h (1 Bft) W 270 10 min 1 UV-I 188 W/m 16,1 km/h (3 Bft)
19.06.2010 07:20 10,6 C 75 % 1006,3 hPa 0,0 mm 1,6 km/h (1 Bft) W 270 10 min 1 UV-I 167 W/m 11,3 km/h (2 Bft)
19.06.2010 07:30 10,5 C 75 % 1006,4 hPa 0,0 mm 4,8 km/h (1 Bft) W-SW 247 10 min 1 UV-I 297 W/m 12,9 km/h (3 Bft)
19.06.2010 07:40 10,7 C 74 % 1006,4 hPa 0,0 mm 8,0 km/h (2 Bft) W 270 10 min 1 UV-I 274 W/m 16,1 km/h (3 Bft)
19.06.2010 07:50 10,7 C 74 % 1006,4 hPa 0,0 mm 6,4 km/h (2 Bft) W 270 0 min 1 UV-I 141 W/m 14,5 km/h (3 Bft)
19.06.2010 08:00 10,7 C 74 % 1006,3 hPa 0,0 mm 3,9 km/h (1 Bft) W-NW 294 10 min 1 UV-I 359 W/m 8,0 km/h (2 Bft)
19.06.2010 08:10 11,0 C 72 % 1006,2 hPa 0,0 mm 4,8 km/h (1 Bft) W 270 10 min 1 UV-I 429 W/m 12,9 km/h (3 Bft)
19.06.2010 08:20 11,3 C 71 % 1006,1 hPa 0,0 mm 4,8 km/h (1 Bft) W 270 10 min 1 UV-I 413 W/m 16,1 km/h (3 Bft)
19.06.2010 08:30 11,3 C 72 % 1006,1 hPa 0,0 mm 4,8 km/h (1 Bft) W 270 10 min 1 UV-I 332 W/m 14,5 km/h (3 Bft)
19.06.2010 08:40 11,3 C 71 % 1006,1 hPa 0,0 mm 6,4 km/h (2 Bft) W 270 10 min 2 UV-I 385 W/m 19,3 km/h (3 Bft)
19.06.2010 08:50 11,4 C 69 % 1006,0 hPa 0,0 mm 6,4 km/h (2 Bft) W 270 10 min 2 UV-I 436 W/m 17,7 km/h (3 Bft)
19.06.2010 09:00 11,8 C 68 % 1006,0 hPa 0,0 mm 8,0 km/h (2 Bft) W-NW 292 10 min 2 UV-I 445 W/m 16,1 km/h (3 Bft)
19.06.2010 09:10 11,9 C 68 % 1005,9 hPa 0,0 mm 6,4 km/h (2 Bft) W 270 10 min 2 UV-I 381 W/m 16,1 km/h (3 Bft)
19.06.2010 09:20 11,9 C 69 % 1005,9 hPa 0,0 mm 6,4 km/h (2 Bft) W 270 10 min 3 UV-I 475 W/m 14,5 km/h (3 Bft)
19.06.2010 09:30 12,1 C 68 % 1005,8 hPa 0,0 mm 4,8 km/h (1 Bft) W 270 10 min 3 UV-I 782 W/m 14,5 km/h (3 Bft)
19.06.2010 09:40 12,7 C 67 % 1005,8 hPa 0,0 mm 6,4 km/h (2 Bft) W 270 10 min 3 UV-I 455 W/m 17,7 km/h (3 Bft)
19.06.2010 09:50 12,6 C 67 % 1005,7 hPa 0,0 mm 6,4 km/h (2 Bft) W 270 10 min 2 UV-I 381 W/m 17,7 km/h (3 Bft)
19.06.2010 10:00 12,6 C 65 % 1005,7 hPa 0,0 mm 8,0 km/h (2 Bft) W 270 10 min 4 UV-I 879 W/m 19,3 km/h (3 Bft)
19.06.2010 10:10 13,0 C 65 % 1005,6 hPa 0,0 mm 6,4 km/h (2 Bft) W-SW 247 10 min 4 UV-I 478 W/m 16,1 km/h (3 Bft)
19.06.2010 10:20 13,1 C 66 % 1005,6 hPa 0,0 mm 6,4 km/h (2 Bft) W 270 10 min 4 UV-I 647 W/m 17,7 km/h (3 Bft)
19.06.2010 10:30 13,2 C 65 % 1005,7 hPa 0,0 mm 8,0 km/h (2 Bft) W 270 0 min 4 UV-I 279 W/m 16,1 km/h (3 Bft)
19.06.2010 10:40 12,6 C 67 % 1005,5 hPa 0,0 mm 4,8 km/h (1 Bft) W-SW 247 0 min 2 UV-I 306 W/m 14,5 km/h (3 Bft)
19.06.2010 10:50 12,4 C 66 % 1005,5 hPa 0,0 mm 6,4 km/h (2 Bft) W-SW 247 0 min 1 UV-I 200 W/m 16,1 km/h (3 Bft)
19.06.2010 11:00 12,2 C 69 % 1005,6 hPa 0,0 mm 4,8 km/h (1 Bft) W-SW 247 0 min 1 UV-I 69 W/m 12,9 km/h (3 Bft)
19.06.2010 11:10 12,0 C 67 % 1005,6 hPa 0,0 mm 6,4 km/h (2 Bft) W-SW 247 0 min 1 UV-I 97 W/m 19,3 km/h (3 Bft)
19.06.2010 11:20 12,2 C 68 % 1005,6 hPa 0,0 mm 4,8 km/h (1 Bft) W 270 0 min 2 UV-I 311 W/m 14,5 km/h (3 Bft)
19.06.2010 11:30 12,4 C 72 % 1005,7 hPa 0,0 mm 6,4 km/h (2 Bft) W 270 0 min 2 UV-I 193 W/m 17,7 km/h (3 Bft)
19.06.2010 11:40 11,6 C 79 % 1005,6 hPa 0,0 mm 4,8 km/h (1 Bft) W 270 0 min 2 UV-I 192 W/m 12,9 km/h (3 Bft)
19.06.2010 11:50 11,8 C 79 % 1005,4 hPa 0,3 mm 3,2 km/h (1 Bft) W 270 10 min 6 UV-I 1060 W/m 8,0 km/h (2 Bft)
19.06.2010 12:00 13,3 C 69 % 1005,2 hPa 0,0 mm 4,8 km/h (1 Bft) W 270 10 min 7 UV-I 1129 W/m 11,3 km/h (2 Bft)
19.06.2010 12:10 13,5 C 67 % 1005,1 hPa 0,0 mm 6,4 km/h (2 Bft) W 270 0 min 3 UV-I 380 W/m 19,3 km/h (3 Bft)
19.06.2010 12:20 13,3 C 67 % 1005,1 hPa 0,0 mm 4,8 km/h (1 Bft) W 270 0 min 4 UV-I 341 W/m 16,1 km/h (3 Bft)
19.06.2010 12:30 13,8 C 65 % 1005,0 hPa 0,0 mm 9,7 km/h (2 Bft) W-SW 247 0 min 7 UV-I 341 W/m 19,3 km/h (3 Bft)
19.06.2010 12:40 13,9 C 64 % 1004,9 hPa 0,0 mm 8,0 km/h (2 Bft) W 270 0 min 3 UV-I 304 W/m 22,5 km/h (4 Bft)
19.06.2010 12:50 13,4 C 66 % 1005,0 hPa 0,0 mm 4,8 km/h (1 Bft) W 270 0 min 1 UV-I 113 W/m 16,1 km/h (3 Bft)
19.06.2010 13:00 13,0 C 69 % 1004,8 hPa 0,0 mm 4,8 km/h (1 Bft) W 270 0 min 2 UV-I 207 W/m 16,1 km/h (3 Bft)
19.06.2010 13:10 13,3 C 67 % 1004,8 hPa 0,0 mm 5,5 km/h (1 Bft) W 265 0 min 1 UV-I 146 W/m 11,3 km/h (2 Bft)
19.06.2010 13:20 13,5 C 68 % 1004,9 hPa 0,0 mm 5,4 km/h (1 Bft) W 261 0 min 1 UV-I 177 W/m 16,1 km/h (3 Bft)
19.06.2010 13:30 13,6 C 62 % 1004,9 hPa 0,0 mm 8,4 km/h (2 Bft) W 275 0 min 2 UV-I 224 W/m 19,3 km/h (3 Bft)
19.06.2010 13:40 13,6 C 62 % 1005,0 hPa 0,0 mm 8,1 km/h (2 Bft) NW 304 0 min 1 UV-I 127 W/m 24,1 km/h (4 Bft)
19.06.2010 13:50 11,2 C 77 % 1005,2 hPa 0,0 mm 11,8 km/h (2 Bft) W 280 0 min 1 UV-I 144 W/m 19,3 km/h (3 Bft)
19.06.2010 14:00 10,5 C 81 % 1005,5 hPa 0,0 mm 8,1 km/h (2 Bft) W 261 0 min 1 UV-I 152 W/m 19,3 km/h (3 Bft)
19.06.2010 14:10 10,4 C 84 % 1005,8 hPa 0,0 mm 4,4 km/h (1 Bft) W 273 0 min 2 UV-I 206 W/m 12,9 km/h (3 Bft)
19.06.2010 14:20 11,0 C 85 % 1006,3 hPa 0,0 mm 3,1 km/h (1 Bft) W 261 0 min 2 UV-I 262 W/m 12,9 km/h (3 Bft)
19.06.2010 14:30 12,3 C 81 % 1006,5 hPa 0,0 mm 3,6 km/h (1 Bft) N 0 10 min 4 UV-I 540 W/m 9,7 km/h (2 Bft)
19.06.2010 14:40 13,6 C 74 % 1006,7 hPa 0,0 mm 6,2 km/h (2 Bft) S-SW 213 10 min 5 UV-I 760 W/m 17,7 km/h (3 Bft)
19.06.2010 14:50 13,9 C 74 % 1007,0 hPa 0,0 mm 6,0 km/h (2 Bft) W-SW 246 10 min 6 UV-I 666 W/m 19,3 km/h (3 Bft)
19.06.2010 15:00 14,7 C 72 % 1005,1 hPa 0,0 mm 6,2 km/h (2 Bft) S-SW 200 10 min 6 UV-I 961 W/m 19,3 km/h (3 Bft)
19.06.2010 15:10 15,0 C 68 % 1007,2 hPa 0,0 mm 7,9 km/h (2 Bft) W-SW 245 10 min 6 UV-I 979 W/m 17,7 km/h (3 Bft)
19.06.2010 15:20 15,5 C 70 % 1009,9 hPa 0,0 mm 7,5 km/h (2 Bft) SW 230 10 min 6 UV-I 974 W/m 17,7 km/h (3 Bft)
19.06.2010 15:30 15,4 C 64 % 1007,5 hPa 0,0 mm 5,9 km/h (2 Bft) S 175 10 min 5 UV-I 756 W/m 14,5 km/h (3 Bft)
19.06.2010 15:40 13,8 C 71 % 1007,9 hPa 0,5 mm 7,7 km/h (2 Bft) W 261 0 min 0 UV-I 47 W/m 22,5 km/h (4 Bft)
19.06.2010 15:50 11,3 C 79 % 1010,3 hPa 0,8 mm 5,3 km/h (1 Bft) W 279 0 min 1 UV-I 73 W/m 16,1 km/h (3 Bft)
19.06.2010 16:00 10,8 C 83 % 1012,8 hPa 0,0 mm 1,8 km/h (1 Bft) NW 321 0 min 1 UV-I 203 W/m 6,4 km/h (2 Bft)
19.06.2010 16:10 11,3 C 83 % 1010,7 hPa 0,0 mm 2,7 km/h (1 Bft) W 267 10 min 3 UV-I 483 W/m 4,8 km/h (1 Bft)
19.06.2010 16:20 16,8 C 66 % 1010,3 hPa 0,0 mm 6,4 km/h (2 Bft) W-NW 292 0 min 1 UV-I 113 W/m 24,1 km/h (4 Bft)
19.06.2010 16:30 16,7 C 68 % 1010,4 hPa 0,0 mm 4,8 km/h (1 Bft) W-NW 292 0 min 2 UV-I 185 W/m 19,3 km/h (3 Bft)
19.06.2010 16:40 16,6 C 68 % 1010,3 hPa 0,0 mm 4,8 km/h (1 Bft) W-NW 292 0 min 2 UV-I 323 W/m 14,5 km/h (3 Bft)
19.06.2010 16:50 16,9 C 69 % 1010,2 hPa 0,0 mm 3,2 km/h (1 Bft) W-NW 292 0 min 2 UV-I 322 W/m 12,9 km/h (3 Bft)
19.06.2010 17:00 17,1 C 68 % 1010,2 hPa 0,0 mm 6,4 km/h (2 Bft) W-NW 292 0 min 2 UV-I 225 W/m 17,7 km/h (3 Bft)
19.06.2010 17:10 16,8 C 70 % 1010,1 hPa 0,0 mm 6,4 km/h (2 Bft) NW 315 0 min 2 UV-I 218 W/m 16,1 km/h (3 Bft)
19.06.2010 17:20 16,6 C 70 % 1010,0 hPa 0,0 mm 6,4 km/h (2 Bft) W 270 0 min 2 UV-I 241 W/m 17,7 km/h (3 Bft)
19.06.2010 17:30 16,3 C 73 % 1010,0 hPa 0,0 mm 6,4 km/h (2 Bft) W-NW 292 0 min 1 UV-I 165 W/m 17,7 km/h (3 Bft)
19.06.2010 17:40 16,1 C 74 % 1010,1 hPa 0,0 mm 4,8 km/h (1 Bft) W-NW 292 0 min 1 UV-I 186 W/m 12,9 km/h (3 Bft)
19.06.2010 17:50 16,2 C 73 % 1009,9 hPa 0,0 mm 3,2 km/h (1 Bft) W-NW 292 10 min 2 UV-I 329 W/m 16,1 km/h (3 Bft)
19.06.2010 18:00 16,6 C 71 % 1009,7 hPa 0,0 mm 6,4 km/h (2 Bft) W-NW 292 10 min 2 UV-I 387 W/m 12,9 km/h (3 Bft)
19.06.2010 18:10 16,8 C 71 % 1009,7 hPa 0,0 mm 4,8 km/h (1 Bft) W-NW 292 10 min 2 UV-I 288 W/m 14,5 km/h (3 Bft)
19.06.2010 18:20 16,7 C 71 % 1009,6 hPa 0,0 mm 8,0 km/h (2 Bft) W-NW 292 10 min 1 UV-I 281 W/m 16,1 km/h (3 Bft)
19.06.2010 18:30 16,7 C 72 % 1009,4 hPa 0,0 mm 4,8 km/h (1 Bft) W-NW 292 10 min 1 UV-I 297 W/m 14,5 km/h (3 Bft)
19.06.2010 18:40 17,1 C 70 % 1009,3 hPa 0,0 mm 4,8 km/h (1 Bft) W-NW 292 10 min 1 UV-I 385 W/m 16,1 km/h (3 Bft)
19.06.2010 18:50 17,2 C 68 % 1009,2 hPa 0,0 mm 6,4 km/h (2 Bft) W 270 10 min 1 UV-I 267 W/m 16,1 km/h (3 Bft)
19.06.2010 19:00 17,1 C 69 % 1009,2 hPa 0,0 mm 4,8 km/h (1 Bft) W 270 0 min 1 UV-I 163 W/m 14,5 km/h (3 Bft)
19.06.2010 19:10 16,8 C 70 % 1009,2 hPa 0,0 mm 6,4 km/h (2 Bft) W-NW 292 0 min 1 UV-I 97 W/m 16,1 km/h (3 Bft)
19.06.2010 19:20 16,7 C 71 % 1009,2 hPa 0,0 mm 4,8 km/h (1 Bft) W-NW 292 0 min 1 UV-I 86 W/m 17,7 km/h (3 Bft)
19.06.2010 19:30 16,4 C 67 % 1009,1 hPa 0,0 mm 3,2 km/h (1 Bft) N-NO 22 0 min 0 UV-I 86 W/m 12,9 km/h (3 Bft)
19.06.2010 19:40 16,3 C 66 % 1009,1 hPa 0,0 mm 3,2 km/h (1 Bft) W-NW 292 0 min 1 UV-I 98 W/m 16,1 km/h (3 Bft)
19.06.2010 19:50 16,2 C 65 % 1009,1 hPa 0,0 mm 3,2 km/h (1 Bft) N-NO 22 0 min 0 UV-I 84 W/m 16,1 km/h (3 Bft)
19.06.2010 20:00 16,0 C 66 % 1009,2 hPa 0,0 mm 1,6 km/h (1 Bft) NW 315 0 min 0 UV-I 74 W/m 17,7 km/h (3 Bft)
19.06.2010 20:10 15,7 C 64 % 1009,3 hPa 0,0 mm 4,8 km/h (1 Bft) NW 315 0 min 0 UV-I 70 W/m 22,5 km/h (4 Bft)
19.06.2010 20:20 15,3 C 64 % 1009,2 hPa 0,0 mm 4,8 km/h (1 Bft) N-NO 22 0 min 0 UV-I 65 W/m 12,9 km/h (3 Bft)
19.06.2010 20:30 15,1 C 63 % 1009,2 hPa 0,0 mm 4,8 km/h (1 Bft) NW 315 0 min 0 UV-I 42 W/m 19,3 km/h (3 Bft)
19.06.2010 20:40 15,0 C 64 % 1009,2 hPa 0,0 mm 3,2 km/h (1 Bft) NW 315 0 min 0 UV-I 40 W/m 16,1 km/h (3 Bft)
19.06.2010 20:50 14,8 C 64 % 1009,2 hPa 0,0 mm 3,2 km/h (1 Bft) N 360 0 min 0 UV-I 39 W/m 14,5 km/h (3 Bft)
19.06.2010 21:00 14,6 C 66 % 1009,2 hPa 0,0 mm 3,2 km/h (1 Bft) N-NO 22 0 min 0 UV-I 33 W/m 14,5 km/h (3 Bft)
19.06.2010 21:10 14,3 C 67 % 1009,2 hPa 0,0 mm 4,8 km/h (1 Bft) N-NO 22 0 min 0 UV-I 23 W/m 20,9 km/h (4 Bft)
19.06.2010 21:20 13,9 C 67 % 1009,4 hPa 0,0 mm 4,8 km/h (1 Bft) W-NW 292 0 min 0 UV-I 18 W/m 14,5 km/h (3 Bft)
19.06.2010 21:30 13,7 C 66 % 1009,5 hPa 0,0 mm 4,8 km/h (1 Bft) W-NW 292 0 min 0 UV-I 11 W/m 16,1 km/h (3 Bft)
19.06.2010 21:40 13,6 C 65 % 1009,5 hPa 0,0 mm 6,4 km/h (2 Bft) W-NW 292 0 min 0 UV-I 0 W/m 25,7 km/h (4 Bft)
19.06.2010 21:50 13,4 C 66 % 1009,6 hPa 0,0 mm 3,2 km/h (1 Bft) W-NW 292 0 min 0 UV-I 0 W/m 11,3 km/h (2 Bft)
19.06.2010 22:00 13,3 C 66 % 1009,7 hPa 0,0 mm 4,8 km/h (1 Bft) W-NW 292 0 min 0 UV-I 0 W/m 19,3 km/h (3 Bft)
19.06.2010 22:10 13,1 C 65 % 1009,6 hPa 0,0 mm 3,2 km/h (1 Bft) W-NW 292 0 min 0 UV-I 0 W/m 12,9 km/h (3 Bft)
19.06.2010 22:20 13,0 C 64 % 1009,6 hPa 0,0 mm 6,4 km/h (2 Bft) W-NW 292 0 min 0 UV-I 0 W/m 17,7 km/h (3 Bft)
19.06.2010 22:30 12,9 C 64 % 1009,6 hPa 0,0 mm 4,8 km/h (1 Bft) W-NW 292 0 min 0 UV-I 0 W/m 17,7 km/h (3 Bft)
19.06.2010 22:40 12,8 C 64 % 1009,6 hPa 0,0 mm 6,4 km/h (2 Bft) W 270 0 min 0 UV-I 0 W/m 16,1 km/h (3 Bft)
19.06.2010 22:50 12,6 C 65 % 1009,5 hPa 0,0 mm 3,2 km/h (1 Bft) W 270 0 min 0 UV-I 0 W/m 11,3 km/h (2 Bft)
19.06.2010 23:00 12,4 C 65 % 1009,5 hPa 0,0 mm 4,8 km/h (1 Bft) W-NW 292 0 min 0 UV-I 0 W/m 16,1 km/h (3 Bft)
19.06.2010 23:10 12,4 C 65 % 1009,6 hPa 0,0 mm 4,8 km/h (1 Bft) W-NW 292 0 min 0 UV-I 0 W/m 19,3 km/h (3 Bft)
19.06.2010 23:20 12,3 C 65 % 1009,6 hPa 0,0 mm 3,2 km/h (1 Bft) W-NW 292 0 min 0 UV-I 0 W/m 12,9 km/h (3 Bft)
19.06.2010 23:30 12,2 C 65 % 1009,7 hPa 0,0 mm 6,4 km/h (2 Bft) W-NW 292 0 min 0 UV-I 0 W/m 20,9 km/h (4 Bft)
19.06.2010 23:40 12,2 C 65 % 1009,5 hPa 0,0 mm 8,0 km/h (2 Bft) W-NW 292 0 min 0 UV-I 0 W/m 19,3 km/h (3 Bft)
19.06.2010 23:50 12,2 C 66 % 1009,3 hPa 0,0 mm 6,4 km/h (2 Bft) NW 315 0 min 0 UV-I 0 W/m 16,1 km/h (3 Bft)
_ Min-Zeit 05:30 13:30 13:00 - 01:40 - - - - - 16:10
Minimum _ 10,0 C 62 % 1004,8 hPa - 1,6 km/h (1 Bft) - - - - - 4,8 km/h (1 Bft)
_ Max-Zeit 18:40 14:20 16:00 15:50 13:50 - - 06:50 12:00 12:00 00:30
Maximum _ 17,3 C 85 % 1012,8 hPa 0,8 mm 11,8 km/h
W (2 Bft)
- - 10 min 7 UV-I 1129 W/m 29,0 km/h
S (5 Bft)
Durchschnitt _ 12,8 C 70 % 1007,7 hPa #1,5 mm 5,1 km/h (1 Bft) W - #6:20 h 2 UV-I 285 W/m 15,2 km/h (3 Bft)